Time;durP1;ratioP1;P1;durP2;ratioP2;P2;SDS_P1;SDS_P2;PMS_P1;PMS_P2;Temp;Humidity;BMP_temperature;BMP_pressure;BME280_temperature;BME280_humidity;BME280_pressure;Samples;Min_cycle;Max_cycle;Signal;HPM_P1;HPM_P2
2022/06/04 00:02:05;;;;;;;5.82;2.40;;;24.30;63.00;;;;;;4995082;28;20021;-60
2022/06/04 00:04:31;;;;;;;3.65;2.03;;;24.30;62.90;;;;;;4997912;28;20025;-61
2022/06/04 00:06:57;;;;;;;4.28;2.65;;;24.30;62.80;;;;;;4994044;28;20052;-60
2022/06/04 00:09:24;;;;;;;6.30;2.40;;;24.30;63.00;;;;;;5010195;28;20097;-59
2022/06/04 00:17:24;;;;;;;3.80;2.10;;;24.20;63.30;;;;;;4979594;28;20099;-60
2022/06/04 00:19:50;;;;;;;4.10;2.40;;;24.20;63.20;;;;;;4993918;28;20360;-60
2022/06/04 00:22:17;;;;;;;4.22;2.67;;;24.20;63.20;;;;;;5011806;28;20026;-60
2022/06/04 00:24:44;;;;;;;5.10;2.22;;;24.20;63.20;;;;;;4993068;28;20037;-60
2022/06/04 00:27:16;;;;;;;3.58;2.30;;;24.20;63.50;;;;;;5010505;28;20101;-60
2022/06/04 00:29:42;;;;;;;6.60;2.38;;;24.20;63.70;;;;;;5009932;28;20060;-60
2022/06/04 00:32:08;;;;;;;5.65;2.20;;;24.10;63.60;;;;;;4990883;28;20050;-60
2022/06/04 00:34:33;;;;;;;4.65;2.35;;;24.10;63.50;;;;;;5007106;28;20025;-61
2022/06/04 00:36:59;;;;;;;4.47;2.40;;;24.20;63.70;;;;;;5011502;28;20387;-58
2022/06/04 00:39:25;;;;;;;4.90;2.30;;;24.20;63.30;;;;;;5010133;28;20518;-60
2022/06/04 00:42:07;;;;;;;3.83;2.40;;;24.20;63.30;;;;;;5011467;28;20026;-61
2022/06/04 00:44:33;;;;;;;4.70;2.35;;;24.20;63.60;;;;;;5008537;28;20143;-60
2022/06/04 00:47:10;;;;;;;4.38;2.30;;;24.20;63.40;;;;;;5002741;28;20038;-60
2022/06/04 00:49:37;;;;;;;4.60;1.80;;;24.20;63.60;;;;;;5008731;28;20046;-60
2022/06/04 00:52:06;;;;;;;3.75;2.45;;;24.20;63.50;;;;;;5009192;28;20030;-60
2022/06/04 00:54:32;;;;;;;4.13;2.78;;;24.20;63.30;;;;;;5011456;28;20037;-60
2022/06/04 00:57:43;;;;;;;3.15;1.92;;;24.20;63.50;;;;;;5010422;28;20030;-60
2022/06/04 01:00:19;;;;;;;4.50;2.20;;;24.20;63.40;;;;;;4947296;29;20042;-59
2022/06/04 01:03:05;;;;;;;5.47;2.30;;;24.20;63.40;;;;;;4925028;29;20035;-60
2022/06/04 01:05:55;;;;;;;2.85;2.20;;;24.10;63.50;;;;;;4934869;29;20485;-60
2022/06/04 01:08:42;;;;;;;5.88;2.58;;;24.10;63.50;;;;;;4938168;29;20027;-60
2022/06/04 01:11:32;;;;;;;3.90;2.15;;;24.10;63.40;;;;;;4951279;29;20192;-60
2022/06/04 01:14:13;;;;;;;3.70;2.50;;;24.20;63.40;;;;;;4942344;29;20042;-60
2022/06/04 01:17:12;;;;;;;5.18;2.45;;;24.10;63.60;;;;;;4948513;29;20066;-60
2022/06/04 01:19:46;;;;;;;5.30;2.47;;;24.00;63.80;;;;;;4917078;29;20076;-61
2022/06/04 01:22:22;;;;;;;4.85;2.60;;;23.90;63.80;;;;;;4941156;29;20024;-59
2022/06/04 01:25:25;;;;;;;4.72;2.42;;;23.90;64.10;;;;;;4942177;29;20043;-60
2022/06/04 01:28:12;;;;;;;3.63;2.40;;;23.80;64.30;;;;;;4947487;29;20047;-60
2022/06/04 01:30:50;;;;;;;6.78;2.47;;;23.80;64.30;;;;;;4945936;29;20119;-60
2022/06/04 01:33:40;;;;;;;4.43;2.70;;;23.80;64.20;;;;;;4933407;29;20041;-59
2022/06/04 01:36:21;;;;;;;4.25;2.70;;;23.90;64.10;;;;;;4950259;28;20042;-59
2022/06/04 01:39:01;;;;;;;5.20;2.75;;;23.90;64.00;;;;;;4996171;28;20026;-59
2022/06/04 01:41:35;;;;;;;4.07;2.47;;;23.80;64.10;;;;;;5013719;28;20463;-63
2022/06/04 01:44:06;;;;;;;3.28;2.45;;;23.70;64.00;;;;;;5002334;28;20037;-59
2022/06/04 01:46:48;;;;;;;3.88;2.53;;;23.80;64.00;;;;;;5013243;28;20034;-61
2022/06/04 01:49:35;;;;;;;4.68;2.40;;;23.70;64.00;;;;;;5013499;28;20097;-59
2022/06/04 01:52:15;;;;;;;4.20;2.78;;;23.70;64.10;;;;;;5001968;28;20174;-58
2022/06/04 01:54:56;;;;;;;3.45;2.45;;;23.60;64.50;;;;;;5013036;28;20454;-60
2022/06/04 01:57:21;;;;;;;3.92;2.60;;;23.60;64.50;;;;;;5013955;28;20168;-59
2022/06/04 01:59:52;;;;;;;4.90;2.70;;;23.60;64.40;;;;;;5012243;28;20111;-60
2022/06/04 02:02:27;;;;;;;4.78;2.50;;;23.60;64.20;;;;;;5013563;28;20531;-59
2022/06/04 02:04:57;;;;;;;4.30;2.50;;;23.70;64.10;;;;;;5001530;28;20037;-59
2022/06/04 02:07:33;;;;;;;4.65;2.78;;;23.70;64.00;;;;;;5012148;28;20184;-60
2022/06/04 02:10:29;;;;;;;3.83;2.35;;;23.70;63.70;;;;;;5013358;28;20479;-59
2022/06/04 02:13:00;;;;;;;8.32;2.55;;;23.60;63.90;;;;;;4984274;28;20044;-59
2022/06/04 02:15:32;;;;;;;3.05;2.45;;;23.60;63.80;;;;;;5012362;28;20545;-59
2022/06/04 02:18:01;;;;;;;5.22;2.20;;;23.50;64.10;;;;;;5013327;28;20026;-59
2022/06/04 02:20:28;;;;;;;3.50;2.20;;;23.50;64.00;;;;;;5012892;28;20383;-59
2022/06/04 02:22:56;;;;;;;3.33;2.22;;;23.40;64.20;;;;;;5011493;28;20030;-58
2022/06/04 02:25:22;;;;;;;5.38;2.70;;;23.40;64.10;;;;;;5013080;28;20348;-59
2022/06/04 02:27:50;;;;;;;3.97;1.95;;;23.40;64.20;;;;;;4995232;28;20451;-59
2022/06/04 02:30:16;;;;;;;7.20;2.20;;;23.50;64.10;;;;;;5011628;28;20025;-59
2022/06/04 02:33:17;;;;;;;3.88;1.98;;;23.40;64.00;;;;;;5010495;28;20365;-59
2022/06/04 02:35:58;;;;;;;5.80;2.15;;;23.40;64.40;;;;;;4951431;29;20468;-59
2022/06/04 02:38:48;;;;;;;4.05;2.40;;;23.40;64.20;;;;;;4941360;29;20493;-59
2022/06/04 02:41:23;;;;;;;3.47;2.10;;;23.40;64.30;;;;;;4949537;29;20119;-59
2022/06/04 02:44:28;;;;;;;4.00;2.60;;;23.40;64.40;;;;;;4951589;29;20070;-59
2022/06/04 02:47:01;;;;;;;3.17;1.90;;;23.30;64.40;;;;;;4911407;29;20051;-59
2022/06/04 02:50:05;;;;;;;3.65;2.20;;;23.30;64.50;;;;;;4929617;29;20443;-59
2022/06/04 02:52:34;;;;;;;2.87;1.80;;;23.20;64.70;;;;;;4913381;29;20059;-60
2022/06/04 02:55:07;;;;;;;4.00;2.10;;;23.30;64.60;;;;;;4940016;29;20285;-59
2022/06/04 02:57:34;;;;;;;3.83;2.03;;;23.30;64.60;;;;;;4951969;29;20039;-58
2022/06/04 03:00:01;;;;;;;4.90;2.42;;;23.40;64.50;;;;;;4952627;29;20118;-60
2022/06/04 03:02:30;;;;;;;5.20;2.33;;;23.40;64.30;;;;;;4952508;29;20138;-61
2022/06/04 03:04:56;;;;;;;4.38;2.10;;;23.40;64.10;;;;;;4951981;29;20028;-59
2022/06/04 03:07:24;;;;;;;6.32;2.30;;;23.40;64.20;;;;;;4952392;29;20035;-59
2022/06/04 03:10:02;;;;;;;5.32;2.00;;;23.40;64.20;;;;;;4950346;29;20034;-59
2022/06/04 03:12:28;;;;;;;3.92;2.10;;;23.30;64.40;;;;;;4980025;28;20061;-59
2022/06/04 03:14:53;;;;;;;4.65;1.92;;;23.40;64.30;;;;;;5012711;28;20076;-59
2022/06/04 03:17:19;;;;;;;3.50;2.08;;;23.40;64.20;;;;;;5011914;28;20079;-59
2022/06/04 03:19:45;;;;;;;2.85;2.00;;;23.40;64.10;;;;;;5012319;28;20476;-60
2022/06/04 03:22:10;;;;;;;3.72;2.13;;;23.40;64.00;;;;;;5012673;28;20029;-59
2022/06/04 03:24:36;;;;;;;7.80;2.40;;;23.50;64.10;;;;;;5009419;28;20487;-59
2022/06/04 03:27:02;;;;;;;3.22;1.90;;;23.50;64.10;;;;;;4988141;28;20438;-59
2022/06/04 03:29:27;;;;;;;5.93;2.25;;;23.50;64.00;;;;;;5012670;28;20467;-59
2022/06/04 03:31:53;;;;;;;4.55;2.20;;;23.50;63.80;;;;;;5012508;28;20612;-60
2022/06/04 03:34:19;;;;;;;4.05;2.35;;;23.60;63.80;;;;;;5011280;28;20116;-59
2022/06/04 03:36:44;;;;;;;5.97;2.55;;;23.60;63.60;;;;;;5012631;28;20423;-59
2022/06/04 03:39:10;;;;;;;4.45;2.33;;;23.70;63.40;;;;;;4995241;28;20033;-59
2022/06/04 03:41:37;;;;;;;4.63;2.50;;;23.60;64.00;;;;;;5004623;28;20030;-60
2022/06/04 03:44:03;;;;;;;3.42;2.35;;;23.60;63.60;;;;;;5011377;28;20117;-59
2022/06/04 03:46:31;;;;;;;3.75;2.30;;;23.50;63.80;;;;;;5012727;28;20034;-59
2022/06/04 03:48:57;;;;;;;3.17;2.30;;;23.50;63.80;;;;;;5007065;28;20072;-59
2022/06/04 03:51:27;;;;;;;3.67;2.30;;;23.50;63.80;;;;;;4978491;28;20078;-60
2022/06/04 03:53:53;;;;;;;5.07;2.20;;;23.60;63.60;;;;;;5011926;28;20337;-59
2022/06/04 03:56:19;;;;;;;5.82;2.53;;;23.70;63.40;;;;;;5012633;28;20042;-60
2022/06/04 03:58:45;;;;;;;5.00;2.38;;;23.70;63.20;;;;;;4991068;28;20039;-59
2022/06/04 04:01:20;;;;;;;3.67;2.20;;;23.80;63.00;;;;;;5008977;28;20022;-59
2022/06/04 04:03:46;;;;;;;6.43;2.30;;;23.80;63.00;;;;;;5008188;28;20025;-60
2022/06/04 04:06:14;;;;;;;3.65;2.15;;;23.90;62.70;;;;;;5012429;28;20041;-60
2022/06/04 04:08:39;;;;;;;4.85;2.33;;;23.90;62.50;;;;;;5006625;28;20113;-61
2022/06/04 04:11:10;;;;;;;4.88;2.30;;;23.90;62.40;;;;;;4989643;28;20109;-61
2022/06/04 04:13:36;;;;;;;4.72;2.20;;;24.00;62.30;;;;;;5012191;28;20029;-58
2022/06/04 04:16:03;;;;;;;3.55;2.38;;;24.00;62.10;;;;;;4994489;28;20030;-58
2022/06/04 04:18:28;;;;;;;3.45;2.03;;;24.00;62.60;;;;;;5012044;28;20036;-59
2022/06/04 04:20:54;;;;;;;4.03;2.47;;;24.10;61.90;;;;;;5008193;28;20026;-58
2022/06/04 04:23:20;;;;;;;5.45;2.47;;;24.00;61.90;;;;;;5006388;28;20095;-60
2022/06/04 04:25:45;;;;;;;5.55;2.05;;;24.10;61.90;;;;;;5011302;28;20038;-60
2022/06/04 04:28:11;;;;;;;4.70;2.28;;;24.20;61.70;;;;;;5001783;28;20165;-60
2022/06/04 04:30:37;;;;;;;4.18;2.25;;;24.30;61.30;;;;;;4994786;28;20077;-59
2022/06/04 04:33:05;;;;;;;4.18;2.20;;;24.30;61.10;;;;;;5011400;28;20061;-60
2022/06/04 04:35:33;;;;;;;2.97;2.00;;;24.20;61.00;;;;;;5003231;28;20034;-60
2022/06/04 04:37:59;;;;;;;5.07;2.17;;;24.20;61.10;;;;;;5008334;28;20030;-60
2022/06/04 04:40:27;;;;;;;3.05;2.00;;;24.20;61.00;;;;;;5011958;28;20033;-59
2022/06/04 04:42:53;;;;;;;4.50;2.33;;;24.30;61.00;;;;;;4990757;28;20029;-59
2022/06/04 04:45:21;;;;;;;5.40;2.38;;;24.50;60.60;;;;;;5011913;28;20029;-59
2022/06/04 04:47:48;;;;;;;2.88;2.03;;;24.60;60.20;;;;;;4992215;28;20068;-59
2022/06/04 04:50:20;;;;;;;3.63;1.80;;;24.70;60.00;;;;;;5011283;28;20073;-59
2022/06/04 04:52:46;;;;;;;4.43;2.10;;;24.90;59.20;;;;;;5002439;28;20018;-60
2022/06/04 04:55:13;;;;;;;4.25;1.77;;;25.10;58.90;;;;;;5011836;28;20022;-60
2022/06/04 04:57:39;;;;;;;5.97;2.05;;;25.20;58.40;;;;;;5011891;28;20037;-60
2022/06/04 05:00:07;;;;;;;4.60;1.90;;;25.00;58.00;;;;;;4991791;28;20105;-57
2022/06/04 05:02:33;;;;;;;4.45;1.90;;;25.10;58.10;;;;;;5010796;28;20121;-57
2022/06/04 05:04:59;;;;;;;3.53;1.98;;;25.10;57.90;;;;;;5010017;28;20029;-59
2022/06/04 05:07:25;;;;;;;3.67;2.10;;;25.20;57.80;;;;;;5006816;28;20046;-58
2022/06/04 05:09:50;;;;;;;4.40;1.90;;;25.30;57.60;;;;;;4993355;28;20021;-57
2022/06/04 05:12:16;;;;;;;4.00;1.88;;;25.40;57.20;;;;;;5013237;28;20042;-56
2022/06/04 05:14:42;;;;;;;5.22;1.80;;;25.60;57.30;;;;;;5013812;28;20042;-57
2022/06/04 05:17:08;;;;;;;3.78;1.90;;;25.70;56.80;;;;;;5014579;28;20065;-57
2022/06/04 05:19:34;;;;;;;4.63;1.92;;;26.10;56.20;;;;;;5013593;28;20057;-58
2022/06/04 05:22:00;;;;;;;5.03;1.70;;;26.30;55.20;;;;;;5013749;28;20034;-59
2022/06/04 05:24:29;;;;;;;3.38;1.90;;;26.50;54.70;;;;;;5010372;28;20530;-59
2022/06/04 05:26:56;;;;;;;5.88;2.00;;;26.50;54.50;;;;;;5013646;28;20042;-58
2022/06/04 05:29:22;;;;;;;5.97;1.73;;;26.70;54.00;;;;;;5013005;28;20062;-59
2022/06/04 05:31:48;;;;;;;6.53;2.00;;;26.90;53.60;;;;;;5012399;28;20437;-57
2022/06/04 05:34:16;;;;;;;5.10;2.05;;;27.00;53.20;;;;;;5013026;28;20059;-57
2022/06/04 05:36:43;;;;;;;4.82;1.95;;;27.10;52.70;;;;;;5013588;28;20037;-57
2022/06/04 05:39:10;;;;;;;5.78;1.90;;;26.90;52.80;;;;;;5013284;28;20477;-59
2022/06/04 05:41:37;;;;;;;4.30;1.90;;;26.80;52.90;;;;;;5012795;28;20030;-57
2022/06/04 05:44:04;;;;;;;4.05;1.95;;;26.70;53.30;;;;;;5013576;28;20022;-58
2022/06/04 05:46:31;;;;;;;3.83;1.88;;;26.60;53.50;;;;;;5012130;28;20065;-58
2022/06/04 05:48:59;;;;;;;6.22;1.70;;;26.60;53.50;;;;;;5005716;28;20041;-57
2022/06/04 05:51:27;;;;;;;5.07;1.70;;;26.40;53.80;;;;;;4993715;28;20046;-58
2022/06/04 05:53:54;;;;;;;3.95;1.80;;;26.70;53.60;;;;;;5007280;28;20034;-57
2022/06/04 05:56:28;;;;;;;5.70;1.90;;;26.90;53.30;;;;;;4996111;28;20030;-58
2022/06/04 05:59:00;;;;;;;4.53;1.73;;;27.10;52.60;;;;;;5013197;28;20121;-58
2022/06/04 06:01:28;;;;;;;5.03;2.00;;;27.10;52.30;;;;;;4989142;28;20041;-58
2022/06/04 06:03:56;;;;;;;3.10;1.80;;;27.00;52.50;;;;;;5006849;28;20042;-58
2022/06/04 06:06:25;;;;;;;3.47;1.60;;;27.00;52.40;;;;;;5012256;28;20034;-58
2022/06/04 06:08:56;;;;;;;6.13;2.28;;;26.90;52.50;;;;;;5006143;28;20145;-57
2022/06/04 06:11:23;;;;;;;3.83;1.92;;;26.80;52.90;;;;;;5005135;28;20037;-58
2022/06/04 06:13:50;;;;;;;3.80;1.65;;;26.80;52.80;;;;;;5012229;28;20037;-60
2022/06/04 06:16:19;;;;;;;5.68;1.90;;;26.80;52.70;;;;;;5011572;28;20028;-58
2022/06/04 06:18:46;;;;;;;3.22;1.70;;;26.80;52.90;;;;;;5012296;28;20463;-58
2022/06/04 06:21:23;;;;;;;7.25;2.15;;;26.80;52.90;;;;;;5013081;28;20030;-58
2022/06/04 06:23:50;;;;;;;5.80;2.22;;;26.80;52.80;;;;;;4999399;28;20046;-58
2022/06/04 06:26:23;;;;;;;3.95;1.88;;;26.90;53.00;;;;;;5007244;28;20113;-57
2022/06/04 06:28:49;;;;;;;4.65;1.65;;;26.90;52.60;;;;;;4984849;28;20034;-58
2022/06/04 06:31:22;;;;;;;4.57;1.95;;;27.00;52.80;;;;;;5011657;28;20057;-58
2022/06/04 06:33:49;;;;;;;4.97;1.60;;;27.10;52.20;;;;;;5005652;28;20157;-59
2022/06/04 06:36:19;;;;;;;4.20;1.73;;;27.10;51.90;;;;;;5012771;28;20157;-57
2022/06/04 06:38:46;;;;;;;2.63;1.50;;;27.20;52.20;;;;;;5012481;28;20053;-58
2022/06/04 06:41:16;;;;;;;3.92;1.75;;;27.50;51.70;;;;;;5012685;28;20060;-59
2022/06/04 06:43:50;;;;;;;4.90;2.10;;;27.70;51.30;;;;;;5012212;28;20022;-57
2022/06/04 06:46:21;;;;;;;3.55;2.20;;;27.90;51.30;;;;;;4993711;28;20042;-56
2022/06/04 06:48:51;;;;;;;6.45;3.40;;;28.50;50.60;;;;;;5005922;28;20037;-60
2022/06/04 06:51:21;;;;;;;7.28;2.10;;;30.00;48.40;;;;;;4999933;28;20058;-57
2022/06/04 06:53:47;;;;;;;3.50;2.00;;;32.70;42.40;;;;;;4988175;28;20033;-59
2022/06/04 06:56:16;;;;;;;4.75;2.15;;;34.00;40.20;;;;;;5001665;28;20149;-59
2022/06/04 06:58:42;;;;;;;5.18;1.65;;;34.60;38.60;;;;;;5012759;28;20033;-60
2022/06/04 07:01:09;;;;;;;4.30;1.90;;;35.10;38.00;;;;;;5000503;28;20038;-59
2022/06/04 07:03:36;;;;;;;5.05;1.80;;;34.60;38.10;;;;;;5002430;28;20034;-59
2022/06/04 07:06:04;;;;;;;4.10;2.40;;;34.00;38.60;;;;;;5000281;28;20395;-59
2022/06/04 07:08:30;;;;;;;4.25;2.40;;;33.80;39.20;;;;;;5008701;28;20033;-59
2022/06/04 07:10:56;;;;;;;3.95;2.00;;;34.30;39.20;;;;;;5011255;28;20042;-59
2022/06/04 07:13:22;;;;;;;5.43;2.20;;;35.80;37.20;;;;;;5011569;28;20052;-59
2022/06/04 07:15:49;;;;;;;4.13;1.90;;;37.70;35.40;;;;;;5011359;28;20038;-58
2022/06/04 07:18:16;;;;;;;5.90;2.58;;;39.00;33.30;;;;;;5000546;28;20093;-59
2022/06/04 07:20:47;;;;;;;5.38;2.30;;;39.20;33.00;;;;;;4993458;28;20128;-59
2022/06/04 07:23:13;;;;;;;3.80;2.35;;;40.40;31.70;;;;;;4989262;28;20101;-59
2022/06/04 07:25:41;;;;;;;4.95;2.42;;;41.50;30.60;;;;;;5010884;28;20435;-59
2022/06/04 07:28:09;;;;;;;4.30;2.20;;;42.50;29.80;;;;;;5011464;28;20129;-59
2022/06/04 07:30:35;;;;;;;3.88;2.40;;;43.50;29.10;;;;;;5011367;28;20073;-59
2022/06/04 07:33:02;;;;;;;6.40;3.03;;;45.00;28.50;;;;;;4984960;28;20052;-59
2022/06/04 07:35:27;;;;;;;6.55;2.70;;;47.10;27.00;;;;;;5007266;28;20085;-60
2022/06/04 07:37:53;;;;;;;7.72;2.65;;;48.00;26.40;;;;;;5012731;28;20135;-58
2022/06/04 07:40:22;;;;;;;9.63;3.10;;;48.40;25.90;;;;;;5011151;28;20469;-58
2022/06/04 07:42:48;;;;;;;7.53;2.40;;;48.80;25.80;;;;;;5004694;28;20755;-59
2022/06/04 07:45:13;;;;;;;4.65;2.70;;;49.50;25.30;;;;;;5000441;28;20010;-61
2022/06/04 07:47:41;;;;;;;20.92;2.78;;;50.90;24.80;;;;;;4985533;28;20432;-59
2022/06/04 07:50:11;;;;;;;4.45;2.60;;;51.90;23.90;;;;;;5000955;28;20151;-59
2022/06/04 07:52:40;;;;;;;3.13;2.40;;;52.20;23.60;;;;;;5001854;28;20367;-58
2022/06/04 07:55:07;;;;;;;3.83;2.58;;;51.60;23.50;;;;;;5009480;28;20022;-58
2022/06/04 07:57:34;;;;;;;7.10;2.63;;;51.10;23.90;;;;;;5005030;28;20093;-59
2022/06/04 08:00:03;;;;;;;8.55;3.33;;;51.60;23.60;;;;;;4999571;28;20026;-59
2022/06/04 08:02:31;;;;;;;6.38;3.00;;;52.20;23.30;;;;;;5002074;28;20038;-61
2022/06/04 08:04:57;;;;;;;7.93;3.00;;;52.80;23.00;;;;;;5004759;28;20175;-61
2022/06/04 08:07:24;;;;;;;4.68;2.92;;;53.60;23.00;;;;;;4985172;28;20049;-60
2022/06/04 08:09:50;;;;;;;14.45;8.95;;;54.80;22.60;;;;;;5000126;28;20037;-60
2022/06/04 08:12:17;;;;;;;5.63;3.33;;;55.80;22.30;;;;;;4999475;28;20034;-59
2022/06/04 08:14:43;;;;;;;8.45;3.47;;;55.90;21.80;;;;;;4999540;28;20037;-61
2022/06/04 08:17:10;;;;;;;5.00;3.40;;;55.10;22.00;;;;;;4984913;28;20124;-61
2022/06/04 08:19:37;;;;;;;6.28;3.30;;;53.90;22.40;;;;;;4984394;28;20037;-60
2022/06/04 08:22:04;;;;;;;11.82;3.47;;;54.30;22.40;;;;;;4984513;28;20387;-60
2022/06/04 08:24:31;;;;;;;8.70;3.70;;;54.60;22.10;;;;;;4997909;28;20030;-62
2022/06/04 08:26:58;;;;;;;6.43;3.75;;;55.00;22.20;;;;;;4986136;28;20033;-61
2022/06/04 08:29:26;;;;;;;9.40;3.78;;;56.40;21.90;;;;;;4981624;28;20053;-61
2022/06/04 08:31:51;;;;;;;4.75;3.70;;;57.40;21.40;;;;;;5001009;28;20057;-61
2022/06/04 08:34:17;;;;;;;4.55;3.58;;;57.00;21.20;;;;;;4997633;28;20066;-61
2022/06/04 08:36:45;;;;;;;4.25;3.50;;;56.00;21.50;;;;;;4983428;28;20479;-62
2022/06/04 08:39:11;;;;;;;4.43;3.85;;;56.00;21.60;;;;;;5003054;28;20027;-62
2022/06/04 08:41:46;;;;;;;5.15;2.90;;;56.30;21.50;;;;;;5006745;28;20037;-61
2022/06/04 08:44:34;;;;;;;5.80;2.33;;;56.50;21.30;;;;;;4997626;28;20098;-60
2022/06/04 08:47:39;;;;;;;5.28;2.60;;;54.90;21.60;;;;;;5003759;28;20057;-62
2022/06/04 08:50:14;;;;;;;8.13;4.20;;;52.50;22.40;;;;;;5005221;28;20038;-61
2022/06/04 08:52:52;;;;;;;4.47;2.80;;;51.50;23.20;;;;;;5006431;28;20029;-61
2022/06/04 08:58:44;;;;;;;4.55;3.53;;;51.30;23.70;;;;;;5010813;28;20040;-63
2022/06/04 09:01:31;;;;;;;5.47;3.22;;;52.80;23.00;;;;;;5004220;28;20030;-62
2022/06/04 09:04:15;;;;;;;3.30;3.00;;;53.50;22.80;;;;;;5002996;28;20022;-61
2022/06/04 09:06:47;;;;;;;4.43;3.08;;;54.60;22.30;;;;;;5003308;28;20454;-61
2022/06/04 09:09:25;;;;;;;4.18;3.13;;;55.10;21.90;;;;;;5014032;28;20028;-60
2022/06/04 09:11:59;;;;;;;5.43;2.97;;;54.90;21.90;;;;;;5003967;28;20030;-60
2022/06/04 09:14:42;;;;;;;3.75;2.38;;;54.10;22.10;;;;;;5009399;28;20022;-61
2022/06/04 09:17:31;;;;;;;4.05;2.20;;;53.90;22.00;;;;;;5004335;28;20080;-61
2022/06/04 09:19:59;;;;;;;3.33;2.10;;;51.40;22.40;;;;;;5013230;28;20041;-61
2022/06/04 09:22:34;;;;;;;6.05;2.10;;;47.30;24.30;;;;;;4994415;28;20107;-62
2022/06/04 09:25:00;;;;;;;3.35;1.90;;;43.90;26.10;;;;;;5007378;28;20041;-62
2022/06/04 09:27:38;;;;;;;5.40;2.40;;;41.30;27.40;;;;;;5013803;28;20064;-61
2022/06/04 09:30:13;;;;;;;4.15;2.25;;;39.60;28.80;;;;;;4984480;28;20101;-61
2022/06/04 09:32:49;;;;;;;5.30;1.98;;;38.20;29.80;;;;;;4996083;28;20033;-62
2022/06/04 09:35:26;;;;;;;5.18;2.30;;;36.90;31.00;;;;;;5012922;28;20080;-62
2022/06/04 09:37:53;;;;;;;5.85;2.13;;;35.60;32.90;;;;;;5012219;28;20034;-62
2022/06/04 09:40:28;;;;;;;3.65;1.70;;;34.80;33.30;;;;;;5007752;28;20038;-62
2022/06/04 09:43:14;;;;;;;4.38;2.20;;;33.90;34.00;;;;;;4995878;28;20133;-61
2022/06/04 09:45:49;;;;;;;4.93;1.48;;;33.60;34.50;;;;;;5011081;28;20033;-62
2022/06/04 09:48:31;;;;;;;4.95;1.70;;;33.50;35.20;;;;;;5011096;28;20041;-62
2022/06/04 09:51:21;;;;;;;4.68;2.60;;;33.10;35.20;;;;;;4992424;28;20061;-60
2022/06/04 09:53:59;;;;;;;5.35;2.35;;;32.60;35.70;;;;;;5011613;28;20030;-62
2022/06/04 09:56:43;;;;;;;10.27;2.03;;;32.50;36.50;;;;;;5012308;28;20054;-62
2022/06/04 09:59:24;;;;;;;;;;;32.20;36.60;;;;;;5010168;28;20025;-62
2022/06/04 10:02:18;;;;;;;4.07;2.30;;;32.10;36.50;;;;;;4986049;28;19909;-63
2022/06/04 10:04:48;;;;;;;5.30;2.20;;;32.10;36.70;;;;;;4988801;28;20030;-62
2022/06/04 10:07:38;;;;;;;5.07;2.20;;;32.20;36.80;;;;;;4987701;28;20424;-61
2022/06/04 10:10:28;;;;;;;5.72;1.90;;;32.20;36.80;;;;;;4989824;28;20026;-66
2022/06/04 10:15:44;;;;;;;6.00;2.13;;;32.10;36.70;;;;;;4999207;28;20041;-60
2022/06/04 10:18:30;;;;;;;5.20;1.90;;;32.00;37.30;;;;;;5007850;28;20022;-61
2022/06/04 10:20:59;;;;;;;4.10;1.60;;;31.90;37.90;;;;;;5012712;28;20014;-61
2022/06/04 10:23:26;;;;;;;7.25;2.10;;;31.90;37.90;;;;;;4986741;28;20057;-61
2022/06/04 10:26:15;;;;;;;4.68;1.55;;;31.70;38.00;;;;;;5006828;28;20022;-61
2022/06/04 10:29:17;;;;;;;3.67;1.60;;;31.70;38.20;;;;;;4995544;28;20356;-62
2022/06/04 10:32:00;;;;;;;6.60;2.05;;;31.70;38.50;;;;;;4994434;28;20022;-60
2022/06/04 10:34:45;;;;;;;4.88;1.75;;;31.70;38.00;;;;;;5008046;28;20430;-62
2022/06/04 10:37:17;;;;;;;5.03;1.88;;;31.70;38.30;;;;;;4997523;28;20056;-61
2022/06/04 10:39:57;;;;;;;5.95;1.98;;;31.60;38.70;;;;;;5008880;28;20439;-61
2022/06/04 10:42:35;;;;;;;5.47;1.88;;;31.70;39.00;;;;;;5001256;28;20058;-61
2022/06/04 10:45:25;;;;;;;5.07;1.92;;;31.80;38.70;;;;;;5008778;28;20026;-61
2022/06/04 10:48:01;;;;;;;5.95;1.92;;;31.70;38.90;;;;;;4993389;28;20125;-62
2022/06/04 10:54:04;;;;;;;6.18;2.53;;;31.80;38.60;;;;;;5008497;28;20435;-62
2022/06/04 10:56:54;;;;;;;6.18;2.10;;;32.00;38.10;;;;;;5003971;28;20136;-61
2022/06/04 11:00:01;;;;;;;6.82;2.08;;;32.20;37.80;;;;;;5000123;28;20030;-63
2022/06/04 11:02:48;;;;;;;3.67;1.60;;;32.40;37.70;;;;;;4942588;28;20032;-63
2022/06/04 11:05:20;;;;;;;6.85;2.22;;;32.50;36.40;;;;;;4983654;28;20039;-60
2022/06/04 11:07:53;;;;;;;3.63;1.83;;;32.60;36.70;;;;;;5007815;28;20064;-61
2022/06/04 11:10:31;;;;;;;5.00;2.15;;;32.60;36.40;;;;;;5002773;28;20022;-60
2022/06/04 11:13:17;;;;;;;10.25;2.20;;;32.70;36.60;;;;;;5003660;28;20062;-61
2022/06/04 11:16:06;;;;;;;7.75;2.00;;;32.90;36.40;;;;;;5001147;28;20349;-62
2022/06/04 11:18:50;;;;;;;5.18;2.72;;;32.90;36.50;;;;;;5000668;28;20131;-62
2022/06/04 11:21:35;;;;;;;4.60;2.33;;;32.70;36.50;;;;;;5006967;28;20638;-62
2022/06/04 11:24:19;;;;;;;5.18;2.05;;;32.70;36.80;;;;;;5002272;28;20105;-61
2022/06/04 11:27:02;;;;;;;4.22;1.80;;;32.70;36.70;;;;;;4998834;28;20057;-62
2022/06/04 11:29:29;;;;;;;6.35;2.13;;;32.50;37.20;;;;;;4998335;28;20034;-60
2022/06/04 11:32:04;;;;;;;3.60;1.90;;;32.50;37.00;;;;;;5001314;28;20113;-61
2022/06/04 11:34:54;;;;;;;8.13;2.15;;;32.60;36.90;;;;;;5004344;28;20405;-61
2022/06/04 11:37:52;;;;;;;9.95;5.10;;;32.70;36.90;;;;;;5002837;28;20424;-61
2022/06/04 11:40:28;;;;;;;7.22;3.20;;;32.90;36.80;;;;;;4981868;28;20103;-61
2022/06/04 11:42:59;;;;;;;6.60;3.92;;;33.10;36.50;;;;;;5000826;28;20049;-61
2022/06/04 11:45:40;;;;;;;4.70;2.08;;;33.20;36.40;;;;;;5002946;28;20058;-60
2022/06/04 11:48:36;;;;;;;6.95;2.67;;;33.20;36.00;;;;;;5000352;28;20317;-60
2022/06/04 11:51:23;;;;;;;9.65;3.35;;;33.40;36.10;;;;;;5004013;28;20054;-61
2022/06/04 11:54:01;;;;;;;56.95;48.45;;;33.60;36.00;;;;;;5001900;28;20026;-61
2022/06/04 11:56:53;;;;;;;25.60;19.88;;;33.60;35.80;;;;;;5002919;28;20040;-62
2022/06/04 11:59:34;;;;;;;9.77;6.55;;;33.60;35.90;;;;;;5002491;28;20045;-62
2022/06/04 12:02:26;;;;;;;4.25;2.28;;;33.60;36.10;;;;;;5002039;28;20033;-62
2022/06/04 12:05:16;;;;;;;10.45;3.65;;;33.50;36.20;;;;;;4999437;28;20065;-62
2022/06/04 12:07:51;;;;;;;4.95;2.03;;;33.50;36.70;;;;;;4997364;28;20030;-61
2022/06/04 12:10:37;;;;;;;4.45;2.00;;;33.60;35.90;;;;;;5000399;28;20038;-60
2022/06/04 12:13:26;;;;;;;5.10;2.40;;;33.60;35.50;;;;;;4988604;28;20026;-60
2022/06/04 12:16:00;;;;;;;7.30;2.47;;;33.50;35.80;;;;;;4987767;28;20048;-60
2022/06/04 12:18:34;;;;;;;4.13;1.95;;;33.60;35.90;;;;;;4985047;28;20049;-61
2022/06/04 12:24:16;;;;;;;5.30;2.10;;;33.90;35.50;;;;;;5001442;28;20032;-60
2022/06/04 12:26:47;;;;;;;9.90;2.38;;;34.00;35.10;;;;;;4983132;28;20034;-62
2022/06/04 12:29:28;;;;;;;10.65;4.13;;;33.90;35.10;;;;;;4986889;28;20037;-61
2022/06/04 12:32:23;;;;;;;4.32;2.08;;;33.80;35.80;;;;;;4982610;28;20050;-61
2022/06/04 12:34:51;;;;;;;8.60;4.85;;;33.80;35.80;;;;;;4996661;28;20034;-61
2022/06/04 12:37:28;;;;;;;4.63;2.40;;;33.80;35.80;;;;;;4982589;28;20088;-61
2022/06/04 12:39:55;;;;;;;12.48;9.20;;;33.90;35.70;;;;;;4982188;28;20064;-61
2022/06/04 12:42:24;;;;;;;10.88;5.35;;;34.00;35.50;;;;;;4994910;28;20033;-61
2022/06/04 12:44:57;;;;;;;7.18;2.88;;;34.30;35.20;;;;;;4981209;28;20088;-64
2022/06/04 12:47:26;;;;;;;8.18;3.20;;;34.60;35.10;;;;;;4983136;28;20039;-61
2022/06/04 12:50:16;;;;;;;7.65;2.55;;;34.90;35.10;;;;;;4998131;28;20463;-60
2022/06/04 12:53:00;;;;;;;6.40;2.88;;;35.00;34.70;;;;;;4981922;28;20033;-62
2022/06/04 12:55:38;;;;;;;5.70;2.78;;;35.20;34.60;;;;;;4986218;28;20038;-61
2022/06/04 12:58:22;;;;;;;5.30;3.05;;;35.40;34.60;;;;;;5001384;28;20026;-60
2022/06/04 13:01:18;;;;;;;5.45;2.53;;;35.60;34.40;;;;;;4997741;28;20057;-60
2022/06/04 13:03:47;;;;;;;20.15;9.63;;;36.00;33.90;;;;;;4992546;28;20133;-61
2022/06/04 13:06:31;;;;;;;5.22;2.30;;;36.50;34.70;;;;;;4998908;28;20484;-61
2022/06/04 13:09:00;;;;;;;;;;;36.80;33.60;;;;;;4980747;28;20026;-60
2022/06/04 13:11:43;;;;;;;11.82;7.55;;;37.00;33.70;;;;;;4978666;28;19906;-61
2022/06/04 13:14:27;;;;;;;5.65;3.28;;;37.30;32.60;;;;;;4998228;28;20053;-60
2022/06/04 13:17:12;;;;;;;8.02;4.53;;;37.10;32.80;;;;;;4999629;28;20034;-62
2022/06/04 13:19:49;;;;;;;8.25;2.22;;;37.00;32.80;;;;;;4999374;28;20038;-61
2022/06/04 13:22:43;;;;;;;4.97;2.35;;;36.60;33.30;;;;;;4996098;28;20045;-60
2022/06/04 13:25:16;;;;;;;8.82;2.70;;;36.10;34.10;;;;;;4980229;28;20046;-61
2022/06/04 13:27:47;;;;;;;9.27;4.00;;;35.70;32.60;;;;;;4995056;28;20065;-61
2022/06/04 13:30:35;;;;;;;14.35;6.68;;;35.60;33.00;;;;;;4999230;28;20104;-61
2022/06/04 13:33:28;;;;;;;7.15;2.08;;;35.80;34.20;;;;;;4980129;28;20034;-61
2022/06/04 13:35:58;;;;;;;3.42;2.00;;;35.90;33.90;;;;;;4999215;28;20058;-61
2022/06/04 13:38:39;;;;;;;5.38;2.33;;;35.90;34.50;;;;;;4986716;28;20447;-61
2022/06/04 13:44:14;;;;;;;8.75;2.70;;;35.90;34.20;;;;;;4989441;28;20080;-60